createdAt,value
2022-12-05T00:00:14.004Z,0
2022-12-05T00:01:14.170Z,0
2022-12-05T00:02:14.380Z,0
2022-12-05T00:03:14.694Z,0
2022-12-05T00:04:14.938Z,0
2022-12-05T00:05:15.505Z,0
2022-12-05T00:06:15.641Z,0
2022-12-05T00:07:15.777Z,0
2022-12-05T00:08:15.990Z,0
2022-12-05T00:09:16.321Z,0
2022-12-05T00:10:16.458Z,0
2022-12-05T00:11:16.593Z,0
2022-12-05T00:12:16.728Z,0
2022-12-05T00:13:16.858Z,0
2022-12-05T00:14:17.000Z,0
2022-12-05T00:15:17.131Z,0
2022-12-05T00:16:17.307Z,0
2022-12-05T00:17:17.716Z,0
2022-12-05T00:18:17.854Z,0
2022-12-05T00:19:17.991Z,0
2022-12-05T00:20:18.131Z,0
2022-12-05T00:21:18.281Z,0
2022-12-05T00:22:18.408Z,0
2022-12-05T00:23:18.540Z,0
2022-12-05T00:24:18.678Z,0
2022-12-05T00:25:18.814Z,0
2022-12-05T00:26:18.941Z,0
2022-12-05T00:27:19.084Z,0
2022-12-05T00:28:19.218Z,0
2022-12-05T00:29:19.348Z,0
2022-12-05T00:30:19.481Z,0
2022-12-05T00:31:19.661Z,0
2022-12-05T00:32:19.977Z,0
2022-12-05T00:33:20.431Z,0
2022-12-05T00:34:20.574Z,0
2022-12-05T00:35:20.711Z,0
2022-12-05T00:36:20.843Z,0
2022-12-05T00:37:20.980Z,0
2022-12-05T00:38:21.111Z,0
2022-12-05T00:39:21.246Z,0
2022-12-05T00:40:21.382Z,0
2022-12-05T00:41:21.530Z,0
2022-12-05T00:42:21.658Z,0
2022-12-05T00:43:21.794Z,0
2022-12-05T00:44:21.926Z,0
2022-12-05T00:45:22.057Z,0
2022-12-05T00:46:22.270Z,0
2022-12-05T00:47:22.587Z,0
2022-12-05T00:48:22.730Z,0
2022-12-05T00:49:22.868Z,0
2022-12-05T00:50:23.004Z,0
2022-12-05T00:51:23.161Z,0
2022-12-05T00:52:23.305Z,0
2022-12-05T00:53:23.436Z,0
2022-12-05T00:54:23.567Z,0
2022-12-05T00:55:23.693Z,0
2022-12-05T00:56:23.827Z,0
2022-12-05T00:57:23.962Z,0
2022-12-05T00:58:24.099Z,0
2022-12-05T00:59:24.237Z,0
2022-12-05T01:00:24.370Z,0
2022-12-05T01:01:24.588Z,0
2022-12-05T01:02:25.055Z,0
2022-12-05T01:03:25.230Z,0
2022-12-05T01:04:25.553Z,0
2022-12-05T01:05:25.691Z,0
2022-12-05T01:06:25.821Z,0
2022-12-05T01:07:25.955Z,0
2022-12-05T01:08:26.098Z,0
2022-12-05T01:09:26.241Z,0
2022-12-05T01:10:26.394Z,0
2022-12-05T01:11:26.527Z,0
2022-12-05T01:12:26.668Z,0
2022-12-05T01:13:26.797Z,0
2022-12-05T01:14:26.933Z,0
2022-12-05T01:15:27.080Z,0
2022-12-05T01:16:27.273Z,0
2022-12-05T01:17:27.627Z,0
2022-12-05T01:18:27.762Z,0
2022-12-05T01:19:27.891Z,0
2022-12-05T01:20:28.030Z,0
2022-12-05T01:21:28.162Z,0
2022-12-05T01:22:28.298Z,0
2022-12-05T01:23:28.432Z,0
2022-12-05T01:24:28.571Z,0
2022-12-05T01:25:28.705Z,0
2022-12-05T01:26:28.852Z,0
2022-12-05T01:27:28.986Z,0
2022-12-05T01:28:29.152Z,0
2022-12-05T01:29:29.712Z,0
2022-12-05T01:30:29.846Z,0
2022-12-05T01:31:30.094Z,0
2022-12-05T01:32:30.424Z,0
2022-12-05T01:33:30.554Z,0
2022-12-05T01:34:30.688Z,0
2022-12-05T01:35:30.903Z,0
2022-12-05T01:36:31.040Z,0
2022-12-05T01:37:31.167Z,0
2022-12-05T01:38:31.316Z,0
2022-12-05T01:39:31.448Z,0
2022-12-05T01:40:31.588Z,0
2022-12-05T01:41:31.749Z,0
2022-12-05T01:42:31.883Z,0
2022-12-05T01:43:32.024Z,0
2022-12-05T01:44:32.156Z,0
2022-12-05T01:45:32.321Z,0
2022-12-05T01:46:32.806Z,0
2022-12-05T01:47:33.135Z,0
2022-12-05T01:48:33.277Z,0
2022-12-05T01:49:33.407Z,0
2022-12-05T01:50:33.557Z,0
2022-12-05T01:51:33.695Z,0
2022-12-05T01:52:33.820Z,0
2022-12-05T01:53:33.948Z,0
2022-12-05T01:54:34.081Z,0
2022-12-05T01:55:34.215Z,0
2022-12-05T01:56:34.346Z,0
2022-12-05T01:57:34.499Z,0
2022-12-05T01:58:34.658Z,0
2022-12-05T01:59:34.796Z,0
2022-12-05T02:00:34.941Z,0
2022-12-05T02:01:35.186Z,0
2022-12-05T02:02:35.835Z,0
2022-12-05T02:03:36.197Z,0
2022-12-05T02:04:36.327Z,0
2022-12-05T02:05:36.459Z,0
2022-12-05T02:06:36.608Z,0
2022-12-05T02:07:36.792Z,0
2022-12-05T02:08:37.069Z,0
2022-12-05T02:09:37.201Z,0
2022-12-05T02:10:37.346Z,0
2022-12-05T02:11:37.474Z,0
2022-12-05T02:12:39.043Z,0
2022-12-05T02:13:39.409Z,0
2022-12-05T02:14:39.548Z,0
2022-12-05T02:15:39.677Z,0
2022-12-05T02:16:39.866Z,0
2022-12-05T02:17:40.211Z,0
2022-12-05T02:18:40.343Z,0
2022-12-05T02:19:40.473Z,0
2022-12-05T02:20:40.604Z,0
2022-12-05T02:21:40.742Z,0
2022-12-05T02:22:40.868Z,0
2022-12-05T02:23:40.997Z,0
2022-12-05T02:24:41.136Z,0
2022-12-05T02:25:41.270Z,0
2022-12-05T02:26:41.407Z,0
2022-12-05T02:27:41.547Z,0
2022-12-05T02:28:41.678Z,0
2022-12-05T02:29:41.817Z,0
2022-12-05T02:30:41.947Z,0
2022-12-05T02:31:42.158Z,0
2022-12-05T02:32:42.473Z,0
2022-12-05T02:33:42.605Z,0
2022-12-05T02:34:42.740Z,0
2022-12-05T02:35:42.880Z,0
2022-12-05T02:36:43.023Z,0
2022-12-05T02:37:43.161Z,0
2022-12-05T02:38:43.300Z,0
2022-12-05T02:39:43.429Z,0
2022-12-05T02:40:43.565Z,0
2022-12-05T02:41:43.699Z,0
2022-12-05T02:42:43.839Z,0
2022-12-05T02:43:43.973Z,0
2022-12-05T02:44:44.103Z,0
2022-12-05T02:45:44.293Z,0
2022-12-05T02:46:44.589Z,0
2022-12-05T02:47:44.717Z,0
2022-12-05T02:48:44.854Z,0
2022-12-05T02:49:44.988Z,0
2022-12-05T02:50:45.127Z,0
2022-12-05T02:51:45.273Z,0
2022-12-05T02:52:45.405Z,0
2022-12-05T02:53:45.532Z,0
2022-12-05T02:54:45.668Z,0
2022-12-05T02:55:45.827Z,0
2022-12-05T02:56:45.971Z,0
2022-12-05T02:57:46.104Z,0
2022-12-05T02:58:46.247Z,0
2022-12-05T02:59:46.381Z,0
2022-12-05T03:00:46.514Z,0
2022-12-05T03:01:46.724Z,0
2022-12-05T03:02:47.172Z,0
2022-12-05T03:03:47.363Z,0
2022-12-05T03:04:47.610Z,0
2022-12-05T03:05:47.766Z,0
2022-12-05T03:06:47.903Z,0
2022-12-05T03:07:48.131Z,0
2022-12-05T03:08:48.544Z,0
2022-12-05T03:09:48.678Z,0
2022-12-05T03:10:48.809Z,0
2022-12-05T03:11:48.952Z,0
2022-12-05T03:12:49.099Z,0
2022-12-05T03:13:49.231Z,0
2022-12-05T03:14:49.365Z,0
2022-12-05T03:15:49.505Z,0
2022-12-05T03:16:49.659Z,0
2022-12-05T03:17:50.027Z,0
2022-12-05T03:18:50.165Z,0
2022-12-05T03:19:50.303Z,0
2022-12-05T03:20:50.435Z,0
2022-12-05T03:21:50.563Z,0
2022-12-05T03:22:50.693Z,0
2022-12-05T03:23:50.842Z,0
2022-12-05T03:24:50.983Z,0
2022-12-05T03:25:51.116Z,0
2022-12-05T03:26:51.241Z,0
2022-12-05T03:27:51.370Z,0
2022-12-05T03:28:51.498Z,0
2022-12-05T03:29:51.631Z,0
2022-12-05T03:30:51.780Z,0
2022-12-05T03:31:52.040Z,0
2022-12-05T03:32:52.173Z,0
2022-12-05T03:33:52.308Z,0
2022-12-05T03:34:52.444Z,0
2022-12-05T03:35:52.581Z,0
2022-12-05T03:36:52.714Z,0
2022-12-05T03:37:52.854Z,0
2022-12-05T03:38:52.989Z,0
2022-12-05T03:39:53.126Z,0
2022-12-05T03:40:53.263Z,0
2022-12-05T03:41:53.394Z,0
2022-12-05T03:42:53.523Z,0
2022-12-05T03:43:53.653Z,0
2022-12-05T03:44:53.783Z,0
2022-12-05T03:45:53.913Z,0
2022-12-05T03:46:54.182Z,0
2022-12-05T03:47:54.313Z,0
2022-12-05T03:48:54.448Z,0
2022-12-05T03:49:54.589Z,0
2022-12-05T03:50:55.097Z,0
2022-12-05T03:51:55.231Z,0
2022-12-05T03:53:18.436Z,0
2022-12-05T03:54:21.427Z,0
2022-12-05T03:55:21.558Z,0
2022-12-05T03:56:21.689Z,0
2022-12-05T03:57:21.825Z,0
2022-12-05T03:58:21.962Z,0
2022-12-05T03:59:22.096Z,0
2022-12-05T04:00:22.232Z,0
2022-12-05T04:01:22.424Z,0
2022-12-05T04:02:22.697Z,0
2022-12-05T04:03:22.903Z,0
2022-12-05T04:04:23.324Z,0
2022-12-05T04:05:23.459Z,0
2022-12-05T04:06:23.606Z,0
2022-12-05T04:07:23.740Z,0
2022-12-05T04:08:23.873Z,0
2022-12-05T04:09:24.005Z,0
2022-12-05T04:10:24.138Z,0
2022-12-05T04:11:24.278Z,0
2022-12-05T04:12:24.414Z,0
2022-12-05T04:13:24.546Z,0
2022-12-05T04:14:24.674Z,0
2022-12-05T04:15:24.809Z,0
2022-12-05T04:16:24.969Z,0
2022-12-05T04:17:25.379Z,0
2022-12-05T04:18:25.523Z,0
2022-12-05T04:19:25.666Z,0
2022-12-05T04:20:25.797Z,0
2022-12-05T04:21:25.937Z,0
2022-12-05T04:22:26.075Z,0
2022-12-05T04:23:26.236Z,0
2022-12-05T04:24:26.365Z,0
2022-12-05T04:25:26.505Z,0
2022-12-05T04:26:26.641Z,0
2022-12-05T04:27:26.783Z,0
2022-12-05T04:28:26.915Z,0
2022-12-05T04:29:27.053Z,0
2022-12-05T04:30:27.189Z,0
2022-12-05T04:31:27.380Z,0
2022-12-05T04:32:27.820Z,0
2022-12-05T04:33:27.964Z,0
2022-12-05T04:34:28.103Z,0
2022-12-05T04:35:28.242Z,0
2022-12-05T04:36:28.372Z,0
2022-12-05T04:37:28.501Z,0
2022-12-05T04:38:28.641Z,0
2022-12-05T04:39:28.773Z,0
2022-12-05T04:40:28.903Z,0
2022-12-05T04:41:29.039Z,0
2022-12-05T04:42:29.175Z,0
2022-12-05T04:43:29.312Z,0
2022-12-05T04:44:29.451Z,0
2022-12-05T04:45:29.582Z,0
2022-12-05T04:46:29.811Z,0
2022-12-05T04:47:30.077Z,0
2022-12-05T04:48:30.216Z,0
2022-12-05T04:49:30.349Z,0
2022-12-05T04:50:30.504Z,0
2022-12-05T04:51:30.650Z,0
2022-12-05T04:52:30.781Z,0
2022-12-05T04:53:30.908Z,0
2022-12-05T04:54:31.095Z,0
2022-12-05T04:55:31.232Z,0
2022-12-05T04:56:31.363Z,0
2022-12-05T04:57:31.502Z,0
2022-12-05T04:58:31.635Z,0
2022-12-05T04:59:31.777Z,0
2022-12-05T05:00:31.908Z,0
2022-12-05T05:01:32.098Z,0
2022-12-05T05:02:32.439Z,0
2022-12-05T05:03:32.746Z,0
2022-12-05T05:04:32.881Z,0
2022-12-05T05:05:33.013Z,0
2022-12-05T05:06:33.156Z,0
2022-12-05T05:07:33.315Z,0
2022-12-05T05:08:33.578Z,0
2022-12-05T05:09:33.707Z,0
2022-12-05T05:10:33.838Z,0
2022-12-05T05:11:33.969Z,0
2022-12-05T05:12:34.126Z,0
2022-12-05T05:13:34.258Z,0
2022-12-05T05:14:34.398Z,0
2022-12-05T05:15:34.664Z,0
2022-12-05T05:16:35.197Z,0
2022-12-05T05:17:35.635Z,0
2022-12-05T05:18:35.764Z,0
2022-12-05T05:19:35.891Z,0
2022-12-05T05:20:36.023Z,0
2022-12-05T05:21:36.151Z,0
2022-12-05T05:22:36.280Z,0
2022-12-05T05:23:36.417Z,0
2022-12-05T05:24:36.550Z,0
2022-12-05T05:25:36.685Z,0
2022-12-05T05:26:36.828Z,0
2022-12-05T05:27:36.965Z,0
2022-12-05T05:28:37.100Z,0
2022-12-05T05:29:37.236Z,0
2022-12-05T05:30:37.370Z,0
2022-12-05T05:31:37.565Z,0
2022-12-05T05:32:37.895Z,0
2022-12-05T05:33:38.025Z,0
2022-12-05T05:34:38.169Z,0
2022-12-05T05:35:38.304Z,0
2022-12-05T05:36:38.440Z,0
2022-12-05T05:37:38.572Z,0
2022-12-05T05:38:38.706Z,0
2022-12-05T05:39:38.840Z,0
2022-12-05T05:40:38.968Z,0
2022-12-05T05:41:39.117Z,0
2022-12-05T05:42:39.251Z,0
2022-12-05T05:43:39.385Z,0
2022-12-05T05:44:39.519Z,0
2022-12-05T05:45:39.649Z,0
2022-12-05T05:46:39.821Z,0
2022-12-05T05:47:40.243Z,0
2022-12-05T05:48:40.380Z,0
2022-12-05T05:49:40.519Z,0
2022-12-05T05:50:40.652Z,0
2022-12-05T05:51:40.781Z,0
2022-12-05T05:52:40.919Z,0
2022-12-05T05:53:41.054Z,0
2022-12-05T05:54:41.196Z,0
2022-12-05T05:55:41.325Z,0
2022-12-05T05:56:41.475Z,0
2022-12-05T05:57:41.603Z,0
2022-12-05T05:58:41.736Z,0
2022-12-05T05:59:41.869Z,0
2022-12-05T06:00:42.009Z,0
2022-12-05T06:01:42.142Z,0
2022-12-05T06:02:42.345Z,0
2022-12-05T06:03:42.927Z,0
2022-12-05T06:04:43.510Z,0
2022-12-05T06:05:45.464Z,0
2022-12-05T06:06:53.266Z,0
2022-12-05T06:07:53.482Z,0
2022-12-05T06:08:53.874Z,0
2022-12-05T06:09:54.007Z,0
2022-12-05T06:10:54.135Z,0
2022-12-05T06:11:54.268Z,0
2022-12-05T06:12:54.401Z,0
2022-12-05T06:13:54.532Z,0
2022-12-05T06:14:54.676Z,0
2022-12-05T06:15:54.855Z,0
2022-12-05T06:16:55.243Z,0
2022-12-05T06:17:55.645Z,0
2022-12-05T06:18:55.806Z,0
2022-12-05T06:19:56.159Z,0
2022-12-05T06:20:57.269Z,0
2022-12-05T06:21:57.410Z,0
2022-12-05T06:22:57.585Z,0
2022-12-05T06:23:57.766Z,0
2022-12-05T06:24:57.961Z,0
2022-12-05T06:25:58.137Z,0
2022-12-05T06:26:58.274Z,0
2022-12-05T06:27:58.414Z,0
2022-12-05T06:28:58.563Z,0
2022-12-05T06:29:58.949Z,0
2022-12-05T06:31:00.166Z,0
2022-12-05T06:32:00.423Z,0
2022-12-05T06:33:01.009Z,0
2022-12-05T06:34:01.146Z,0
2022-12-05T06:35:01.280Z,0
2022-12-05T06:36:01.433Z,2
2022-12-05T06:37:01.577Z,3
2022-12-05T06:38:01.713Z,4
2022-12-05T06:39:01.851Z,5
2022-12-05T06:40:01.995Z,6
2022-12-05T06:41:02.169Z,7
2022-12-05T06:42:02.321Z,8
2022-12-05T06:43:02.466Z,9
2022-12-05T06:44:02.882Z,11
2022-12-05T06:45:03.044Z,11
2022-12-05T06:46:03.209Z,13
2022-12-05T06:47:03.621Z,13
2022-12-05T06:48:03.753Z,15
2022-12-05T06:49:03.916Z,17
2022-12-05T06:50:04.050Z,17
2022-12-05T06:51:04.181Z,19
2022-12-05T06:52:04.344Z,21
2022-12-05T06:53:04.484Z,21
2022-12-05T06:54:04.616Z,24
2022-12-05T06:55:04.750Z,27
2022-12-05T06:56:04.879Z,27
2022-12-05T06:57:05.004Z,27
2022-12-05T06:58:05.132Z,30
2022-12-05T06:59:05.270Z,30
2022-12-05T07:00:05.409Z,33
2022-12-05T07:01:05.592Z,33
2022-12-05T07:02:06.018Z,37
2022-12-05T07:03:06.339Z,37
2022-12-05T07:04:06.470Z,41
2022-12-05T07:05:06.603Z,46
2022-12-05T07:06:06.734Z,46
2022-12-05T07:07:06.867Z,51
2022-12-05T07:08:07.096Z,51
2022-12-05T07:09:07.418Z,57
2022-12-05T07:10:07.545Z,63
2022-12-05T07:11:07.675Z,63
2022-12-05T07:12:07.818Z,70
2022-12-05T07:13:10.060Z,70
2022-12-05T07:14:31.427Z,77
2022-12-05T07:15:50.176Z,84.96
2022-12-05T07:16:50.347Z,94.96
2022-12-05T07:17:50.652Z,94.96
2022-12-05T07:18:50.784Z,110
2022-12-05T07:19:50.914Z,110
2022-12-05T07:21:11.078Z,110
2022-12-05T07:22:16.062Z,130
2022-12-05T07:23:16.682Z,130
2022-12-05T07:24:16.819Z,130
2022-12-05T07:25:16.949Z,130
2022-12-05T07:26:17.097Z,110
2022-12-05T07:27:20.692Z,110
2022-12-05T07:28:28.507Z,98
2022-12-05T07:29:28.642Z,98
2022-12-05T07:30:28.811Z,98
2022-12-05T07:31:29.004Z,110
2022-12-05T07:32:29.311Z,130
2022-12-05T07:33:29.443Z,150
2022-12-05T07:34:29.579Z,150
2022-12-05T07:35:29.710Z,189.92
2022-12-05T07:36:29.849Z,209.92
2022-12-05T07:37:29.982Z,240
2022-12-05T07:38:30.120Z,240
2022-12-05T07:39:30.253Z,240
2022-12-05T07:40:30.427Z,240
2022-12-05T07:41:30.591Z,240
2022-12-05T07:42:30.725Z,269.92
2022-12-05T07:43:30.855Z,269.92
2022-12-05T07:44:31.001Z,269.92
2022-12-05T07:45:31.198Z,269.92
2022-12-05T07:46:31.485Z,300
2022-12-05T07:47:31.688Z,300
2022-12-05T07:48:32.038Z,300
2022-12-05T07:49:32.179Z,300
2022-12-05T07:50:32.313Z,300
2022-12-05T07:51:32.449Z,300
2022-12-05T07:52:32.588Z,300
2022-12-05T07:53:32.725Z,329.92
2022-12-05T07:54:32.859Z,329.92
2022-12-05T07:55:32.990Z,329.92
2022-12-05T07:56:33.137Z,329.92
2022-12-05T07:57:33.268Z,329.92
2022-12-05T07:58:33.408Z,329.92
2022-12-05T07:59:33.543Z,329.92
2022-12-05T08:00:33.689Z,329.92
2022-12-05T08:01:33.835Z,329.92
2022-12-05T08:02:36.567Z,289.92
2022-12-05T08:03:41.384Z,289.92
2022-12-05T08:04:41.519Z,289.92
2022-12-05T08:05:41.656Z,320
2022-12-05T08:06:41.784Z,360
2022-12-05T08:07:41.977Z,449.92
2022-12-05T08:08:42.291Z,560
2022-12-05T08:09:42.424Z,699.52
2022-12-05T08:10:42.558Z,859.52
2022-12-05T08:11:43.124Z,960
2022-12-05T08:12:52.836Z,1179.52
2022-12-05T08:13:52.976Z,1179.52
2022-12-05T08:14:53.113Z,1179.52
2022-12-05T08:15:53.247Z,1179.52
2022-12-05T08:16:53.468Z,1179.52
2022-12-05T08:17:53.799Z,1179.52
2022-12-05T08:18:53.941Z,1179.52
2022-12-05T08:19:54.077Z,1179.52
2022-12-05T08:20:54.208Z,1179.52
2022-12-05T08:21:54.345Z,1179.52
2022-12-05T08:22:54.483Z,1120
2022-12-05T08:23:54.633Z,1120
2022-12-05T08:24:56.347Z,1120
2022-12-05T08:25:56.709Z,1120
2022-12-05T08:26:56.842Z,1239.68
2022-12-05T08:27:56.975Z,1239.68
2022-12-05T08:28:57.105Z,1239.68
2022-12-05T08:29:57.585Z,1239.68
2022-12-05T08:30:58.552Z,1239.68
2022-12-05T08:31:58.824Z,1079.68
2022-12-05T08:32:58.970Z,969.6
2022-12-05T08:33:59.637Z,969.6
2022-12-05T08:34:59.947Z,969.6
2022-12-05T08:36:00.092Z,969.6
2022-12-05T08:37:00.233Z,969.6
2022-12-05T08:38:00.368Z,969.6
2022-12-05T08:39:00.508Z,969.6
2022-12-05T08:40:00.665Z,969.6
2022-12-05T08:41:00.803Z,969.6
2022-12-05T08:42:00.937Z,969.6
2022-12-05T08:43:01.066Z,1019.52
2022-12-05T08:44:01.201Z,1019.52
2022-12-05T08:45:01.444Z,1019.52
2022-12-05T08:46:01.708Z,1019.52
2022-12-05T08:47:02.045Z,1019.52
2022-12-05T08:48:02.178Z,1019.52
2022-12-05T08:49:02.306Z,1019.52
2022-12-05T08:50:02.434Z,909.44
2022-12-05T08:51:02.573Z,909.44
2022-12-05T08:52:02.704Z,909.44
2022-12-05T08:53:02.842Z,909.44
2022-12-05T08:54:02.981Z,909.44
2022-12-05T08:55:03.119Z,809.6
2022-12-05T08:56:03.329Z,809.6
2022-12-05T08:57:03.500Z,809.6
2022-12-05T08:58:03.847Z,720
2022-12-05T08:59:05.913Z,720
2022-12-05T09:00:06.492Z,720
2022-12-05T09:01:06.658Z,720
2022-12-05T09:02:07.014Z,720
2022-12-05T09:03:07.349Z,800
2022-12-05T09:04:07.731Z,800
2022-12-05T09:05:26.020Z,889.6
2022-12-05T09:06:30.030Z,1079.68
2022-12-05T09:07:30.233Z,1219.84
2022-12-05T09:08:30.486Z,1498.88
2022-12-05T09:09:30.620Z,1679.36
2022-12-05T09:10:30.764Z,1879.04
2022-12-05T09:11:30.899Z,2099.2
2022-12-05T09:12:31.040Z,2319.36
2022-12-05T09:13:31.172Z,2560
2022-12-05T09:14:31.308Z,2560
2022-12-05T09:15:31.516Z,2560
2022-12-05T09:16:36.790Z,2560
2022-12-05T09:17:39.728Z,2618.88
2022-12-05T09:18:39.855Z,2618.88
2022-12-05T09:19:39.988Z,2618.88
2022-12-05T09:20:40.120Z,2279.68
2022-12-05T09:21:40.255Z,2279.68
2022-12-05T09:22:40.396Z,2279.68
2022-12-05T09:23:40.533Z,2279.68
2022-12-05T09:24:40.679Z,2279.68
2022-12-05T09:25:40.816Z,2279.68
2022-12-05T09:26:40.951Z,2279.68
2022-12-05T09:27:41.126Z,2039.04
2022-12-05T09:28:41.268Z,1799.68
2022-12-05T09:29:41.404Z,1619.2
2022-12-05T09:30:41.653Z,1440
2022-12-05T09:31:41.960Z,1280
2022-12-05T09:32:42.305Z,1280
2022-12-05T09:33:42.455Z,1280
2022-12-05T09:34:42.595Z,1280
2022-12-05T09:35:42.731Z,1139.84
2022-12-05T09:36:42.862Z,1139.84
2022-12-05T09:37:43.008Z,1139.84
2022-12-05T09:38:43.138Z,1139.84
2022-12-05T09:39:43.280Z,1139.84
2022-12-05T09:40:43.415Z,1139.84
2022-12-05T09:41:43.616Z,1139.84
2022-12-05T09:42:43.747Z,1259.52
2022-12-05T09:43:43.884Z,1259.52
2022-12-05T09:44:44.015Z,1399.04
2022-12-05T09:45:44.151Z,1399.04
2022-12-05T09:46:44.347Z,1539.84
2022-12-05T09:47:44.649Z,1539.84
2022-12-05T09:48:44.798Z,1539.84
2022-12-05T09:49:44.942Z,1539.84
2022-12-05T09:50:45.105Z,1539.84
2022-12-05T09:51:45.270Z,1539.84
2022-12-05T09:52:45.403Z,1699.84
2022-12-05T09:53:45.540Z,1699.84
2022-12-05T09:54:45.675Z,1879.04
2022-12-05T09:55:45.806Z,1879.04
2022-12-05T09:56:45.947Z,1879.04
2022-12-05T09:57:46.155Z,1879.04
2022-12-05T09:58:46.292Z,1879.04
2022-12-05T09:59:46.430Z,1879.04
2022-12-05T10:00:46.566Z,1879.04
2022-12-05T10:01:46.745Z,1879.04
2022-12-05T10:02:47.055Z,1879.04
2022-12-05T10:03:47.186Z,1879.04
2022-12-05T10:04:47.350Z,1839.36
2022-12-05T10:05:47.644Z,1839.36
2022-12-05T10:06:47.769Z,1839.36
2022-12-05T10:07:47.954Z,1839.36
2022-12-05T10:08:48.307Z,1639.68
2022-12-05T10:09:48.442Z,1639.68
2022-12-05T10:10:48.598Z,1639.68
2022-12-05T10:11:48.744Z,1639.68
2022-12-05T10:12:48.884Z,1639.68
2022-12-05T10:13:49.039Z,1639.68
2022-12-05T10:14:49.174Z,1639.68
2022-12-05T10:15:51.990Z,1639.68
2022-12-05T10:16:57.982Z,1519.36
2022-12-05T10:17:58.112Z,1519.36
2022-12-05T10:18:58.248Z,1498.88
2022-12-05T10:19:58.375Z,1498.88
2022-12-05T10:20:58.509Z,1498.88
2022-12-05T10:21:58.663Z,1658.88
2022-12-05T10:22:58.796Z,1658.88
2022-12-05T10:23:59.335Z,1839.36
2022-12-05T10:25:00.331Z,1839.36
2022-12-05T10:26:01.324Z,1839.36
2022-12-05T10:27:01.486Z,1839.36
2022-12-05T10:28:01.623Z,1839.36
2022-12-05T10:29:01.758Z,1839.36
2022-12-05T10:30:01.919Z,1839.36
2022-12-05T10:31:02.110Z,1839.36
2022-12-05T10:32:02.481Z,2039.04
2022-12-05T10:33:06.315Z,2039.04
2022-12-05T10:34:10.036Z,2259.2
2022-12-05T10:35:10.175Z,2259.2
2022-12-05T10:36:10.308Z,2499.84
2022-12-05T10:37:10.443Z,2759.68
2022-12-05T10:38:10.587Z,3038.72
2022-12-05T10:39:11.591Z,3038.72
2022-12-05T10:40:12.036Z,3038.72
2022-12-05T10:41:12.177Z,3038.72
2022-12-05T10:42:12.326Z,3038.72
2022-12-05T10:43:12.462Z,3038.72
2022-12-05T10:44:12.597Z,3038.72
2022-12-05T10:45:12.750Z,3038.72
2022-12-05T10:46:16.935Z,3038.72
2022-12-05T10:47:17.996Z,2979.84
2022-12-05T10:48:18.345Z,3258.88
2022-12-05T10:49:18.487Z,3258.88
2022-12-05T10:50:18.616Z,3258.88
2022-12-05T10:51:18.749Z,3258.88
2022-12-05T10:52:18.884Z,3258.88
2022-12-05T10:53:19.013Z,3258.88
2022-12-05T10:54:19.143Z,2880
2022-12-05T10:55:19.274Z,2579.2
2022-12-05T10:56:30.063Z,2579.2
2022-12-05T10:57:31.448Z,2319.36
2022-12-05T10:58:31.643Z,2319.36
2022-12-05T10:59:31.788Z,2319.36
2022-12-05T11:00:32.707Z,2319.36
2022-12-05T11:01:33.806Z,2319.36
2022-12-05T11:02:35.817Z,2319.36
2022-12-05T11:03:35.952Z,2319.36
2022-12-05T11:04:36.146Z,2319.36
2022-12-05T11:05:36.417Z,2560
2022-12-05T11:06:36.817Z,2560
2022-12-05T11:07:37.009Z,2560
2022-12-05T11:09:02.900Z,2560
2022-12-05T11:10:06.184Z,2659.84
2022-12-05T11:11:06.328Z,2659.84
2022-12-05T11:12:06.478Z,2659.84
2022-12-05T11:13:06.614Z,2659.84
2022-12-05T11:14:06.746Z,2659.84
2022-12-05T11:15:06.875Z,2339.84
2022-12-05T11:16:07.086Z,2339.84
2022-12-05T11:17:07.390Z,2339.84
2022-12-05T11:18:07.524Z,2339.84
2022-12-05T11:19:07.653Z,2339.84
2022-12-05T11:20:07.787Z,2339.84
2022-12-05T11:21:07.921Z,2339.84
2022-12-05T11:22:08.136Z,2339.84
2022-12-05T11:23:08.345Z,2599.68
2022-12-05T11:24:08.477Z,2599.68
2022-12-05T11:25:08.604Z,2599.68
2022-12-05T11:26:08.737Z,2599.68
2022-12-05T11:27:08.879Z,2599.68
2022-12-05T11:28:09.024Z,2599.68
2022-12-05T11:29:09.171Z,2599.68
2022-12-05T11:30:09.336Z,2599.68
2022-12-05T11:31:09.543Z,2599.68
2022-12-05T11:32:09.809Z,2599.68
2022-12-05T11:33:09.943Z,2759.68
2022-12-05T11:34:10.080Z,2759.68
2022-12-05T11:35:10.215Z,2759.68
2022-12-05T11:36:10.345Z,2759.68
2022-12-05T11:37:10.490Z,2759.68
2022-12-05T11:38:10.630Z,2759.68
2022-12-05T11:39:10.767Z,2759.68
2022-12-05T11:40:10.899Z,2759.68
2022-12-05T11:41:11.070Z,2759.68
2022-12-05T11:42:11.347Z,3038.72
2022-12-05T11:43:11.550Z,3038.72
2022-12-05T11:44:11.688Z,3038.72
2022-12-05T11:45:11.835Z,3038.72
2022-12-05T11:46:11.987Z,3038.72
2022-12-05T11:47:12.387Z,3038.72
2022-12-05T11:48:12.856Z,3038.72
2022-12-05T11:49:12.992Z,3038.72
2022-12-05T11:50:13.135Z,3038.72
2022-12-05T11:51:13.275Z,3358.72
2022-12-05T11:52:13.414Z,3358.72
2022-12-05T11:53:13.615Z,3358.72
2022-12-05T11:54:13.747Z,3358.72
2022-12-05T11:55:13.910Z,3358.72
2022-12-05T11:56:14.037Z,3358.72
2022-12-05T11:57:14.171Z,3358.72
2022-12-05T11:58:14.308Z,3358.72
2022-12-05T11:59:14.436Z,3699.2
2022-12-05T12:00:14.568Z,3699.2
2022-12-05T12:01:14.698Z,4119.04
2022-12-05T12:02:14.899Z,4119.04
2022-12-05T12:03:15.422Z,4579.84
2022-12-05T12:04:15.671Z,4579.84
2022-12-05T12:05:15.824Z,4579.84
2022-12-05T12:06:15.962Z,4579.84
2022-12-05T12:07:16.098Z,4579.84
2022-12-05T12:08:16.276Z,4579.84
2022-12-05T12:09:16.625Z,5038.08
2022-12-05T12:10:16.769Z,5038.08
2022-12-05T12:11:16.906Z,5038.08
2022-12-05T12:12:17.046Z,5038.08
2022-12-05T12:13:17.193Z,5555.2
2022-12-05T12:14:17.343Z,5555.2
2022-12-05T12:15:17.486Z,5555.2
2022-12-05T12:16:17.677Z,5555.2
2022-12-05T12:17:18.078Z,5555.2
2022-12-05T12:18:18.210Z,5555.2
2022-12-05T12:19:18.344Z,6236.16
2022-12-05T12:20:18.473Z,6917.12
2022-12-05T12:21:18.613Z,6917.12
2022-12-05T12:22:18.762Z,6917.12
2022-12-05T12:23:18.890Z,6917.12
2022-12-05T12:24:19.026Z,6917.12
2022-12-05T12:25:19.159Z,6195.2
2022-12-05T12:26:19.299Z,6195.2
2022-12-05T12:27:19.432Z,6195.2
2022-12-05T12:28:19.569Z,6195.2
2022-12-05T12:29:19.704Z,6195.2
2022-12-05T12:30:19.838Z,6195.2
2022-12-05T12:31:20.016Z,5555.2
2022-12-05T12:32:20.322Z,5555.2
2022-12-05T12:33:24.071Z,5555.2
2022-12-05T12:34:27.967Z,4999.68
2022-12-05T12:35:28.105Z,4999.68
2022-12-05T12:36:28.240Z,4999.68
2022-12-05T12:37:28.373Z,4999.68
2022-12-05T12:38:28.519Z,4999.68
2022-12-05T12:39:28.652Z,4999.68
2022-12-05T12:40:28.782Z,4999.68
2022-12-05T12:41:28.928Z,4999.68
2022-12-05T12:42:29.095Z,4999.68
2022-12-05T12:43:52.501Z,5519.36
2022-12-05T12:44:55.064Z,5795.84
2022-12-05T12:45:55.291Z,6097.92
2022-12-05T12:46:55.629Z,6097.92
2022-12-05T12:47:55.766Z,6097.92
2022-12-05T12:48:55.908Z,6097.92
2022-12-05T12:49:56.038Z,6097.92
2022-12-05T12:50:56.170Z,6097.92
2022-12-05T12:51:56.308Z,6097.92
2022-12-05T12:52:56.440Z,6097.92
2022-12-05T12:53:56.575Z,6097.92
2022-12-05T12:55:04.989Z,6097.92
2022-12-05T12:56:05.806Z,5719.04
2022-12-05T12:57:09.326Z,5719.04
2022-12-05T12:58:20.662Z,5335.04
2022-12-05T12:59:20.795Z,5335.04
2022-12-05T13:00:20.931Z,5335.04
2022-12-05T13:01:21.122Z,5335.04
2022-12-05T13:02:21.446Z,5335.04
2022-12-05T13:03:21.824Z,5335.04
2022-12-05T13:04:21.970Z,5158.4
2022-12-05T13:05:22.113Z,5158.4
2022-12-05T13:06:22.243Z,4618.24
2022-12-05T13:07:22.382Z,4618.24
2022-12-05T13:08:22.625Z,4618.24
2022-12-05T13:09:22.901Z,4618.24
2022-12-05T13:10:23.034Z,4618.24
2022-12-05T13:11:23.251Z,4618.24
2022-12-05T13:12:23.610Z,4618.24
2022-12-05T13:13:24.217Z,4618.24
2022-12-05T13:14:24.371Z,4618.24
2022-12-05T13:15:24.498Z,4618.24
2022-12-05T13:16:24.676Z,4697.6
2022-12-05T13:17:24.936Z,4697.6
2022-12-05T13:18:25.090Z,4697.6
2022-12-05T13:19:25.237Z,4697.6
2022-12-05T13:20:25.373Z,4697.6
2022-12-05T13:21:25.511Z,4697.6
2022-12-05T13:22:25.645Z,4697.6
2022-12-05T13:23:25.777Z,4697.6
2022-12-05T13:24:25.920Z,4218.88
2022-12-05T13:25:26.053Z,4218.88
2022-12-05T13:26:26.185Z,4218.88
2022-12-05T13:27:26.325Z,4218.88
2022-12-05T13:28:26.465Z,3758.08
2022-12-05T13:29:26.608Z,3758.08
2022-12-05T13:30:26.751Z,3758.08
2022-12-05T13:31:26.954Z,3758.08
2022-12-05T13:32:27.304Z,3758.08
2022-12-05T13:33:27.439Z,3379.2
2022-12-05T13:34:27.743Z,3379.2
2022-12-05T13:35:27.880Z,3379.2
2022-12-05T13:36:28.021Z,3379.2
2022-12-05T13:37:28.159Z,3379.2
2022-12-05T13:38:28.291Z,3379.2
2022-12-05T13:39:28.433Z,3379.2
2022-12-05T13:40:28.571Z,3379.2